sensor_id;sensor_type;location;lat;lon;timestamp;pressure;altitude;pressure_sealevel;temperature;humidity
73671;BME280;61968;48.178;11.566;2023-11-21T00:00:30;95283.03;;;7.66;44.98
73671;BME280;61968;48.178;11.566;2023-11-21T00:02:56;95280.19;;;7.68;45.06
73671;BME280;61968;48.178;11.566;2023-11-21T00:05:23;95276.75;;;7.67;44.98
73671;BME280;61968;48.178;11.566;2023-11-21T00:07:49;95276.09;;;7.72;45.25
73671;BME280;61968;48.178;11.566;2023-11-21T00:10:16;95272.16;;;7.62;45.12
73671;BME280;61968;48.178;11.566;2023-11-21T00:12:43;95274.34;;;7.47;45.38
73671;BME280;61968;48.178;11.566;2023-11-21T00:15:11;95265.81;;;7.33;46.18
73671;BME280;61968;48.178;11.566;2023-11-21T00:17:37;95269.19;;;7.22;46.40
73671;BME280;61968;48.178;11.566;2023-11-21T00:20:05;95264.75;;;7.04;46.67
73671;BME280;61968;48.178;11.566;2023-11-21T00:22:33;95255.16;;;7.10;46.35
73671;BME280;61968;48.178;11.566;2023-11-21T00:24:59;95246.38;;;7.16;46.51
73671;BME280;61968;48.178;11.566;2023-11-21T00:27:25;95246.38;;;6.97;47.15
73671;BME280;61968;48.178;11.566;2023-11-21T00:29:52;95237.28;;;7.00;47.50
73671;BME280;61968;48.178;11.566;2023-11-21T00:32:20;95232.44;;;7.15;46.93
73671;BME280;61968;48.178;11.566;2023-11-21T00:34:46;95218.88;;;7.00;46.89
73671;BME280;61968;48.178;11.566;2023-11-21T00:37:13;95222.75;;;6.97;47.43
73671;BME280;61968;48.178;11.566;2023-11-21T00:39:40;95220.47;;;7.19;46.87
73671;BME280;61968;48.178;11.566;2023-11-21T00:42:06;95219.84;;;7.36;46.54
73671;BME280;61968;48.178;11.566;2023-11-21T00:44:33;95214.59;;;7.54;45.70
73671;BME280;61968;48.178;11.566;2023-11-21T00:47:00;95213.13;;;7.40;46.05
73671;BME280;61968;48.178;11.566;2023-11-21T00:49:29;95205.88;;;7.54;45.61
73671;BME280;61968;48.178;11.566;2023-11-21T00:51:56;95209.91;;;7.56;45.45
73671;BME280;61968;48.178;11.566;2023-11-21T00:54:23;95221.69;;;7.54;45.42
73671;BME280;61968;48.178;11.566;2023-11-21T00:56:49;95212.47;;;7.44;45.84
73671;BME280;61968;48.178;11.566;2023-11-21T00:59:16;95216.47;;;7.47;45.98
73671;BME280;61968;48.178;11.566;2023-11-21T01:01:42;95219.66;;;7.49;46.29
73671;BME280;61968;48.178;11.566;2023-11-21T01:04:09;95212.09;;;7.59;45.97
73671;BME280;61968;48.178;11.566;2023-11-21T01:06:37;95214.72;;;7.59;45.69
73671;BME280;61968;48.178;11.566;2023-11-21T01:09:04;95208.56;;;7.65;45.40
73671;BME280;61968;48.178;11.566;2023-11-21T01:11:33;95213.13;;;7.58;45.84
73671;BME280;61968;48.178;11.566;2023-11-21T01:14:02;95209.56;;;7.53;46.19
73671;BME280;61968;48.178;11.566;2023-11-21T01:16:28;95208.66;;;7.59;45.78
73671;BME280;61968;48.178;11.566;2023-11-21T01:18:55;95211.19;;;7.65;45.87
73671;BME280;61968;48.178;11.566;2023-11-21T01:21:21;95219.28;;;7.64;45.60
73671;BME280;61968;48.178;11.566;2023-11-21T01:23:49;95222.75;;;7.64;45.88
73671;BME280;61968;48.178;11.566;2023-11-21T01:26:16;95219.69;;;7.68;45.73
73671;BME280;61968;48.178;11.566;2023-11-21T01:28:42;95222.53;;;7.66;46.13
73671;BME280;61968;48.178;11.566;2023-11-21T01:31:08;95221.94;;;7.64;45.85
73671;BME280;61968;48.178;11.566;2023-11-21T01:33:35;95226.28;;;7.70;45.26
73671;BME280;61968;48.178;11.566;2023-11-21T01:36:01;95220.00;;;7.59;45.96
73671;BME280;61968;48.178;11.566;2023-11-21T01:38:27;95227.88;;;7.59;45.63
73671;BME280;61968;48.178;11.566;2023-11-21T01:40:55;95224.06;;;7.55;46.21
73671;BME280;61968;48.178;11.566;2023-11-21T01:43:22;95215.31;;;7.43;46.13
73671;BME280;61968;48.178;11.566;2023-11-21T01:45:49;95218.53;;;7.45;46.61
73671;BME280;61968;48.178;11.566;2023-11-21T01:48:16;95219.25;;;7.52;45.77
73671;BME280;61968;48.178;11.566;2023-11-21T01:50:42;95225.34;;;7.53;46.10
73671;BME280;61968;48.178;11.566;2023-11-21T01:53:11;95230.81;;;7.51;45.96
73671;BME280;61968;48.178;11.566;2023-11-21T01:55:40;95226.56;;;7.50;45.88
73671;BME280;61968;48.178;11.566;2023-11-21T01:58:08;95231.59;;;7.52;45.95
73671;BME280;61968;48.178;11.566;2023-11-21T02:00:35;95234.03;;;7.53;45.65
73671;BME280;61968;48.178;11.566;2023-11-21T02:03:03;95231.81;;;7.50;46.28
73671;BME280;61968;48.178;11.566;2023-11-21T02:05:32;95236.28;;;7.50;45.92
73671;BME280;61968;48.178;11.566;2023-11-21T02:07:58;95234.59;;;7.55;45.55
73671;BME280;61968;48.178;11.566;2023-11-21T02:10:26;95233.00;;;7.54;45.33
73671;BME280;61968;48.178;11.566;2023-11-21T02:12:52;95243.59;;;7.48;45.47
73671;BME280;61968;48.178;11.566;2023-11-21T02:15:20;95243.22;;;7.44;44.95
73671;BME280;61968;48.178;11.566;2023-11-21T02:17:47;95242.03;;;7.40;45.74
73671;BME280;61968;48.178;11.566;2023-11-21T02:20:17;95249.13;;;7.39;45.36
73671;BME280;61968;48.178;11.566;2023-11-21T02:22:49;95239.63;;;7.08;46.25
73671;BME280;61968;48.178;11.566;2023-11-21T02:25:17;95238.16;;;6.94;46.64
73671;BME280;61968;48.178;11.566;2023-11-21T02:27:44;95234.50;;;7.13;46.06
73671;BME280;61968;48.178;11.566;2023-11-21T02:30:14;95235.66;;;7.17;46.46
73671;BME280;61968;48.178;11.566;2023-11-21T02:32:41;95231.34;;;7.23;46.56
73671;BME280;61968;48.178;11.566;2023-11-21T02:35:08;95230.75;;;7.21;46.64
73671;BME280;61968;48.178;11.566;2023-11-21T02:37:34;95232.75;;;7.26;47.15
73671;BME280;61968;48.178;11.566;2023-11-21T02:40:03;95231.56;;;7.21;46.70
73671;BME280;61968;48.178;11.566;2023-11-21T02:42:30;95224.44;;;7.10;46.60
73671;BME280;61968;48.178;11.566;2023-11-21T02:44:57;95230.16;;;7.19;46.59
73671;BME280;61968;48.178;11.566;2023-11-21T02:47:23;95221.28;;;7.20;46.44
73671;BME280;61968;48.178;11.566;2023-11-21T02:49:50;95219.94;;;7.29;46.35
73671;BME280;61968;48.178;11.566;2023-11-21T02:52:17;95217.66;;;7.33;46.12
73671;BME280;61968;48.178;11.566;2023-11-21T02:54:44;95214.50;;;7.42;46.09
73671;BME280;61968;48.178;11.566;2023-11-21T02:57:12;95218.97;;;7.42;46.10
73671;BME280;61968;48.178;11.566;2023-11-21T02:59:38;95209.47;;;7.41;46.04
73671;BME280;61968;48.178;11.566;2023-11-21T03:02:05;95206.75;;;7.48;46.16
73671;BME280;61968;48.178;11.566;2023-11-21T03:04:33;95212.81;;;7.48;46.20
73671;BME280;61968;48.178;11.566;2023-11-21T03:07:00;95212.66;;;7.43;46.19
73671;BME280;61968;48.178;11.566;2023-11-21T03:09:27;95210.88;;;7.43;45.96
73671;BME280;61968;48.178;11.566;2023-11-21T03:11:53;95209.19;;;7.31;46.68
73671;BME280;61968;48.178;11.566;2023-11-21T03:14:20;95211.38;;;7.34;46.60
73671;BME280;61968;48.178;11.566;2023-11-21T03:16:47;95209.28;;;7.24;46.93
73671;BME280;61968;48.178;11.566;2023-11-21T03:19:14;95207.44;;;7.25;46.93
73671;BME280;61968;48.178;11.566;2023-11-21T03:21:41;95202.78;;;7.27;47.24
73671;BME280;61968;48.178;11.566;2023-11-21T03:24:08;95201.69;;;7.34;46.85
73671;BME280;61968;48.178;11.566;2023-11-21T03:26:34;95203.63;;;7.39;46.60
73671;BME280;61968;48.178;11.566;2023-11-21T03:29:03;95202.84;;;7.38;46.75
73671;BME280;61968;48.178;11.566;2023-11-21T03:31:31;95196.53;;;7.39;46.40
73671;BME280;61968;48.178;11.566;2023-11-21T03:33:58;95203.56;;;7.27;46.35
73671;BME280;61968;48.178;11.566;2023-11-21T03:36:24;95197.03;;;7.18;47.06
73671;BME280;61968;48.178;11.566;2023-11-21T03:38:51;95195.56;;;7.22;46.80
73671;BME280;61968;48.178;11.566;2023-11-21T03:41:17;95197.56;;;7.08;47.06
73671;BME280;61968;48.178;11.566;2023-11-21T03:43:43;95201.47;;;7.17;47.08
73671;BME280;61968;48.178;11.566;2023-11-21T03:46:10;95192.94;;;7.22;46.50
73671;BME280;61968;48.178;11.566;2023-11-21T03:48:39;95193.44;;;7.12;47.00
73671;BME280;61968;48.178;11.566;2023-11-21T03:51:05;95187.00;;;7.27;46.57
73671;BME280;61968;48.178;11.566;2023-11-21T03:53:32;95189.03;;;7.25;47.01
73671;BME280;61968;48.178;11.566;2023-11-21T03:55:58;95192.25;;;7.27;46.76
73671;BME280;61968;48.178;11.566;2023-11-21T03:58:26;95193.06;;;7.27;46.93
73671;BME280;61968;48.178;11.566;2023-11-21T04:00:53;95197.25;;;7.16;46.67
73671;BME280;61968;48.178;11.566;2023-11-21T04:03:19;95207.53;;;7.18;56.64
73671;BME280;61968;48.178;11.566;2023-11-21T04:05:47;95195.53;;;7.40;45.96
73671;BME280;61968;48.178;11.566;2023-11-21T04:08:13;95189.88;;;7.37;46.53
73671;BME280;61968;48.178;11.566;2023-11-21T04:10:40;95201.13;;;7.14;46.75
73671;BME280;61968;48.178;11.566;2023-11-21T04:13:07;95195.47;;;7.29;46.29
73671;BME280;61968;48.178;11.566;2023-11-21T04:15:33;95199.84;;;7.95;53.21
73671;BME280;61968;48.178;11.566;2023-11-21T04:18:00;95190.47;;;8.70;51.89
73671;BME280;61968;48.178;11.566;2023-11-21T04:20:27;95188.13;;;8.97;49.09
73671;BME280;61968;48.178;11.566;2023-11-21T04:22:54;95189.94;;;9.08;46.00
73671;BME280;61968;48.178;11.566;2023-11-21T04:25:21;95191.22;;;9.06;45.04
73671;BME280;61968;48.178;11.566;2023-11-21T04:27:48;95203.34;;;9.07;48.60
73671;BME280;61968;48.178;11.566;2023-11-21T04:30:15;95199.69;;;9.08;44.94
73671;BME280;61968;48.178;11.566;2023-11-21T04:32:42;95203.56;;;8.76;44.83
73671;BME280;61968;48.178;11.566;2023-11-21T04:35:09;95205.00;;;8.84;43.70
73671;BME280;61968;48.178;11.566;2023-11-21T04:37:35;95201.44;;;8.67;47.29
73671;BME280;61968;48.178;11.566;2023-11-21T04:40:04;95207.44;;;8.74;44.61
73671;BME280;61968;48.178;11.566;2023-11-21T04:42:33;95203.66;;;8.70;44.00
73671;BME280;61968;48.178;11.566;2023-11-21T04:44:59;95205.91;;;8.54;42.98
73671;BME280;61968;48.178;11.566;2023-11-21T04:47:26;95204.75;;;8.03;43.93
73671;BME280;61968;48.178;11.566;2023-11-21T04:49:54;95203.59;;;7.57;45.16
73671;BME280;61968;48.178;11.566;2023-11-21T04:52:20;95203.88;;;7.19;46.09
73671;BME280;61968;48.178;11.566;2023-11-21T04:54:47;95205.59;;;7.13;46.29
73671;BME280;61968;48.178;11.566;2023-11-21T04:57:14;95209.06;;;7.26;45.97
73671;BME280;61968;48.178;11.566;2023-11-21T04:59:43;95204.97;;;7.30;45.56
73671;BME280;61968;48.178;11.566;2023-11-21T05:02:09;95210.78;;;7.02;46.25
73671;BME280;61968;48.178;11.566;2023-11-21T05:04:36;95211.34;;;7.04;46.76
73671;BME280;61968;48.178;11.566;2023-11-21T05:07:03;95209.59;;;6.97;46.50
73671;BME280;61968;48.178;11.566;2023-11-21T05:09:29;95216.16;;;7.07;46.62
73671;BME280;61968;48.178;11.566;2023-11-21T05:11:57;95209.81;;;6.96;46.64
73671;BME280;61968;48.178;11.566;2023-11-21T05:14:26;95214.03;;;7.15;46.24
73671;BME280;61968;48.178;11.566;2023-11-21T05:16:53;95209.09;;;7.07;46.37
73671;BME280;61968;48.178;11.566;2023-11-21T05:19:19;95211.50;;;6.72;47.40
73671;BME280;61968;48.178;11.566;2023-11-21T05:21:47;95216.84;;;6.65;47.43
73671;BME280;61968;48.178;11.566;2023-11-21T05:24:13;95216.53;;;6.73;48.22
73671;BME280;61968;48.178;11.566;2023-11-21T05:26:39;95215.59;;;6.86;46.92
73671;BME280;61968;48.178;11.566;2023-11-21T05:29:06;95212.31;;;6.91;47.44
73671;BME280;61968;48.178;11.566;2023-11-21T05:31:34;95214.28;;;6.95;47.30
73671;BME280;61968;48.178;11.566;2023-11-21T05:34:00;95218.88;;;6.82;46.94
73671;BME280;61968;48.178;11.566;2023-11-21T05:36:27;95214.22;;;6.65;47.75
73671;BME280;61968;48.178;11.566;2023-11-21T05:38:53;95222.00;;;6.72;47.53
73671;BME280;61968;48.178;11.566;2023-11-21T05:41:20;95228.78;;;6.80;47.23
73671;BME280;61968;48.178;11.566;2023-11-21T05:43:46;95222.81;;;6.91;47.11
73671;BME280;61968;48.178;11.566;2023-11-21T05:46:13;95232.97;;;6.87;46.92
73671;BME280;61968;48.178;11.566;2023-11-21T05:48:40;95230.94;;;6.89;46.64
73671;BME280;61968;48.178;11.566;2023-11-21T05:51:07;95226.91;;;6.87;47.01
73671;BME280;61968;48.178;11.566;2023-11-21T05:53:34;95227.91;;;6.67;47.90
73671;BME280;61968;48.178;11.566;2023-11-21T05:56:00;95234.06;;;6.36;47.72
73671;BME280;61968;48.178;11.566;2023-11-21T05:58:29;95239.69;;;6.40;47.92
73671;BME280;61968;48.178;11.566;2023-11-21T06:00:55;95242.31;;;6.40;47.71
73671;BME280;61968;48.178;11.566;2023-11-21T06:03:22;95237.38;;;6.50;48.04
73671;BME280;61968;48.178;11.566;2023-11-21T06:05:50;95239.66;;;6.46;47.15
73671;BME280;61968;48.178;11.566;2023-11-21T06:08:17;95239.19;;;6.24;48.41
73671;BME280;61968;48.178;11.566;2023-11-21T06:10:44;95234.31;;;6.35;47.39
73671;BME280;61968;48.178;11.566;2023-11-21T06:13:10;95248.03;;;6.05;48.66
73671;BME280;61968;48.178;11.566;2023-11-21T06:15:36;95242.97;;;6.35;47.69
73671;BME280;61968;48.178;11.566;2023-11-21T06:18:03;95245.88;;;5.95;48.42
73671;BME280;61968;48.178;11.566;2023-11-21T06:20:31;95244.69;;;5.91;48.63
73671;BME280;61968;48.178;11.566;2023-11-21T06:22:59;95254.47;;;5.77;49.01
73671;BME280;61968;48.178;11.566;2023-11-21T06:25:29;95254.44;;;6.09;47.99
73671;BME280;61968;48.178;11.566;2023-11-21T06:27:58;95253.81;;;6.14;47.94
73671;BME280;61968;48.178;11.566;2023-11-21T06:30:24;95261.00;;;6.32;47.47
73671;BME280;61968;48.178;11.566;2023-11-21T06:32:51;95257.03;;;6.16;47.48
73671;BME280;61968;48.178;11.566;2023-11-21T06:35:17;95253.44;;;6.10;47.91
73671;BME280;61968;48.178;11.566;2023-11-21T06:37:44;95261.47;;;6.15;47.31
73671;BME280;61968;48.178;11.566;2023-11-21T06:40:14;95266.25;;;6.32;47.41
73671;BME280;61968;48.178;11.566;2023-11-21T06:42:41;95259.78;;;6.27;47.44
73671;BME280;61968;48.178;11.566;2023-11-21T06:45:10;95269.22;;;6.35;46.91
73671;BME280;61968;48.178;11.566;2023-11-21T06:47:36;95268.28;;;6.23;47.52
73671;BME280;61968;48.178;11.566;2023-11-21T06:50:03;95271.84;;;6.35;47.23
73671;BME280;61968;48.178;11.566;2023-11-21T06:52:30;95271.91;;;6.22;47.50
73671;BME280;61968;48.178;11.566;2023-11-21T06:54:56;95281.34;;;6.04;47.71
73671;BME280;61968;48.178;11.566;2023-11-21T06:57:24;95277.16;;;6.22;47.61
73671;BME280;61968;48.178;11.566;2023-11-21T06:59:51;95291.34;;;6.46;47.09
73671;BME280;61968;48.178;11.566;2023-11-21T07:02:17;95286.44;;;6.56;46.83
73671;BME280;61968;48.178;11.566;2023-11-21T07:04:44;95291.25;;;6.34;47.08
73671;BME280;61968;48.178;11.566;2023-11-21T07:07:11;95284.50;;;6.45;46.73
73671;BME280;61968;48.178;11.566;2023-11-21T07:09:38;95296.91;;;6.31;46.73
73671;BME280;61968;48.178;11.566;2023-11-21T07:12:05;95293.28;;;6.32;47.14
73671;BME280;61968;48.178;11.566;2023-11-21T07:14:34;95290.41;;;6.09;47.05
73671;BME280;61968;48.178;11.566;2023-11-21T07:17:00;95301.59;;;6.29;47.14
73671;BME280;61968;48.178;11.566;2023-11-21T07:19:27;95297.50;;;6.33;46.73
73671;BME280;61968;48.178;11.566;2023-11-21T07:21:54;95297.16;;;6.23;46.50
73671;BME280;61968;48.178;11.566;2023-11-21T07:24:20;95306.31;;;6.14;47.08
73671;BME280;61968;48.178;11.566;2023-11-21T07:26:48;95296.81;;;6.13;47.76
73671;BME280;61968;48.178;11.566;2023-11-21T07:29:14;95310.78;;;6.06;48.15
73671;BME280;61968;48.178;11.566;2023-11-21T07:31:42;95308.13;;;5.81;48.44
73671;BME280;61968;48.178;11.566;2023-11-21T07:34:08;95308.72;;;5.83;47.95
73671;BME280;61968;48.178;11.566;2023-11-21T07:36:35;95308.19;;;5.68;48.76
73671;BME280;61968;48.178;11.566;2023-11-21T07:39:01;95306.66;;;5.92;47.77
73671;BME280;61968;48.178;11.566;2023-11-21T07:41:28;95309.53;;;6.16;47.49
73671;BME280;61968;48.178;11.566;2023-11-21T07:43:55;95308.56;;;6.42;47.06
73671;BME280;61968;48.178;11.566;2023-11-21T07:46:22;95310.69;;;6.51;46.29
73671;BME280;61968;48.178;11.566;2023-11-21T07:48:50;95316.72;;;6.59;46.42
73671;BME280;61968;48.178;11.566;2023-11-21T07:51:17;95317.28;;;6.61;45.96
73671;BME280;61968;48.178;11.566;2023-11-21T07:53:43;95321.75;;;6.60;46.16
73671;BME280;61968;48.178;11.566;2023-11-21T07:56:10;95322.97;;;6.58;46.08
73671;BME280;61968;48.178;11.566;2023-11-21T07:58:38;95311.59;;;6.64;46.17
73671;BME280;61968;48.178;11.566;2023-11-21T08:01:05;95317.53;;;6.59;44.99
73671;BME280;61968;48.178;11.566;2023-11-21T08:03:31;95314.47;;;6.62;45.80
73671;BME280;61968;48.178;11.566;2023-11-21T08:05:59;95313.97;;;6.15;46.40
73671;BME280;61968;48.178;11.566;2023-11-21T08:08:28;95314.22;;;6.07;47.19
73671;BME280;61968;48.178;11.566;2023-11-21T08:10:54;95317.91;;;6.31;46.53
73671;BME280;61968;48.178;11.566;2023-11-21T08:13:22;95325.66;;;6.51;45.83
73671;BME280;61968;48.178;11.566;2023-11-21T08:15:49;95317.78;;;6.51;46.07
73671;BME280;61968;48.178;11.566;2023-11-21T08:18:15;95323.63;;;6.21;46.73
73671;BME280;61968;48.178;11.566;2023-11-21T08:20:43;95327.19;;;6.34;46.71
73671;BME280;61968;48.178;11.566;2023-11-21T08:23:14;95319.38;;;6.52;46.14
73671;BME280;61968;48.178;11.566;2023-11-21T08:25:42;95316.66;;;6.65;45.93
73671;BME280;61968;48.178;11.566;2023-11-21T08:28:09;95324.47;;;6.72;45.36
73671;BME280;61968;48.178;11.566;2023-11-21T08:30:35;95318.28;;;6.85;45.56
73671;BME280;61968;48.178;11.566;2023-11-21T08:33:02;95322.75;;;6.84;45.19
73671;BME280;61968;48.178;11.566;2023-11-21T08:35:29;95324.25;;;6.73;45.39
73671;BME280;61968;48.178;11.566;2023-11-21T08:37:55;95320.94;;;6.60;45.73
73671;BME280;61968;48.178;11.566;2023-11-21T08:40:23;95323.41;;;6.55;46.30
73671;BME280;61968;48.178;11.566;2023-11-21T08:42:50;95316.44;;;6.67;45.70
73671;BME280;61968;48.178;11.566;2023-11-21T08:45:18;95322.00;;;6.52;45.92
73671;BME280;61968;48.178;11.566;2023-11-21T08:47:44;95319.50;;;6.39;46.51
73671;BME280;61968;48.178;11.566;2023-11-21T08:50:11;95325.91;;;6.43;46.31
73671;BME280;61968;48.178;11.566;2023-11-21T08:52:38;95322.38;;;6.31;46.63
73671;BME280;61968;48.178;11.566;2023-11-21T08:55:06;95325.06;;;6.49;46.68
73671;BME280;61968;48.178;11.566;2023-11-21T08:57:35;95329.78;;;6.65;46.13
73671;BME280;61968;48.178;11.566;2023-11-21T09:00:02;95328.06;;;6.78;46.08
73671;BME280;61968;48.178;11.566;2023-11-21T09:02:33;95330.75;;;6.46;46.66
73671;BME280;61968;48.178;11.566;2023-11-21T09:05:00;95327.91;;;6.47;47.02
73671;BME280;61968;48.178;11.566;2023-11-21T09:07:28;95335.56;;;6.49;46.39
73671;BME280;61968;48.178;11.566;2023-11-21T09:09:55;95329.81;;;6.02;47.78
73671;BME280;61968;48.178;11.566;2023-11-21T09:12:21;95333.56;;;5.81;48.27
73671;BME280;61968;48.178;11.566;2023-11-21T09:14:51;95341.50;;;5.61;48.39
73671;BME280;61968;48.178;11.566;2023-11-21T09:17:17;95342.56;;;5.92;48.04
73671;BME280;61968;48.178;11.566;2023-11-21T09:19:44;95342.84;;;5.83;48.39
73671;BME280;61968;48.178;11.566;2023-11-21T09:22:15;95347.94;;;6.10;47.80
73671;BME280;61968;48.178;11.566;2023-11-21T09:24:42;95350.28;;;6.25;47.44
73671;BME280;61968;48.178;11.566;2023-11-21T09:27:09;95351.38;;;6.42;47.04
73671;BME280;61968;48.178;11.566;2023-11-21T09:29:36;95356.75;;;6.54;46.81
73671;BME280;61968;48.178;11.566;2023-11-21T09:32:05;95356.06;;;6.65;46.38
73671;BME280;61968;48.178;11.566;2023-11-21T09:34:33;95358.69;;;6.65;47.00
73671;BME280;61968;48.178;11.566;2023-11-21T09:37:01;95358.88;;;6.39;47.31
73671;BME280;61968;48.178;11.566;2023-11-21T09:39:30;95359.25;;;6.67;46.52
73671;BME280;61968;48.178;11.566;2023-11-21T09:42:01;95356.72;;;6.86;46.70
73671;BME280;61968;48.178;11.566;2023-11-21T09:44:34;95355.88;;;7.10;45.89
73671;BME280;61968;48.178;11.566;2023-11-21T09:47:02;95358.47;;;6.92;46.20
73671;BME280;61968;48.178;11.566;2023-11-21T09:49:33;95349.22;;;7.08;45.88
73671;BME280;61968;48.178;11.566;2023-11-21T09:52:01;95357.06;;;6.64;47.17
73671;BME280;61968;48.178;11.566;2023-11-21T09:54:30;95349.53;;;6.74;46.93
73671;BME280;61968;48.178;11.566;2023-11-21T09:56:57;95359.22;;;6.49;47.79
73671;BME280;61968;48.178;11.566;2023-11-21T09:59:30;95357.94;;;6.83;46.84
73671;BME280;61968;48.178;11.566;2023-11-21T10:01:57;95349.72;;;6.73;46.75
73671;BME280;61968;48.178;11.566;2023-11-21T10:04:25;95348.53;;;6.94;46.21
73671;BME280;61968;48.178;11.566;2023-11-21T10:06:54;95353.81;;;7.12;46.25
73671;BME280;61968;48.178;11.566;2023-11-21T10:09:21;95353.44;;;7.09;45.55
73671;BME280;61968;48.178;11.566;2023-11-21T10:11:49;95363.25;;;7.02;45.96
73671;BME280;61968;48.178;11.566;2023-11-21T10:14:18;95357.97;;;7.02;45.97
73671;BME280;61968;48.178;11.566;2023-11-21T10:16:47;95358.75;;;6.84;46.71
73671;BME280;61968;48.178;11.566;2023-11-21T10:19:15;95353.22;;;6.92;47.12
73671;BME280;61968;48.178;11.566;2023-11-21T10:21:42;95353.97;;;6.74;46.91
73671;BME280;61968;48.178;11.566;2023-11-21T10:24:10;95349.47;;;6.81;47.13
73671;BME280;61968;48.178;11.566;2023-11-21T10:26:38;95341.25;;;6.96;47.04
73671;BME280;61968;48.178;11.566;2023-11-21T10:29:04;95353.78;;;6.94;46.33
73671;BME280;61968;48.178;11.566;2023-11-21T10:31:31;95360.19;;;7.05;46.55
73671;BME280;61968;48.178;11.566;2023-11-21T10:34:12;95354.47;;;6.89;47.04
73671;BME280;61968;48.178;11.566;2023-11-21T10:36:39;95357.63;;;6.98;46.56
73671;BME280;61968;48.178;11.566;2023-11-21T10:39:05;95359.75;;;7.26;46.63
73671;BME280;61968;48.178;11.566;2023-11-21T10:41:33;95362.13;;;7.34;45.73
73671;BME280;61968;48.178;11.566;2023-11-21T10:44:00;95360.03;;;7.18;46.29
73671;BME280;61968;48.178;11.566;2023-11-21T10:46:29;95362.59;;;7.25;46.38
73671;BME280;61968;48.178;11.566;2023-11-21T10:48:56;95369.91;;;7.23;46.36
73671;BME280;61968;48.178;11.566;2023-11-21T10:51:23;95367.06;;;7.24;46.66
73671;BME280;61968;48.178;11.566;2023-11-21T10:53:51;95361.44;;;7.39;46.01
73671;BME280;61968;48.178;11.566;2023-11-21T10:56:18;95359.53;;;7.46;46.26
73671;BME280;61968;48.178;11.566;2023-11-21T10:58:49;95358.31;;;6.87;47.13
73671;BME280;61968;48.178;11.566;2023-11-21T11:01:17;95350.53;;;6.98;46.90
73671;BME280;61968;48.178;11.566;2023-11-21T11:03:46;95345.84;;;7.01;47.00
73671;BME280;61968;48.178;11.566;2023-11-21T11:06:13;95345.13;;;6.68;47.64
73671;BME280;61968;48.178;11.566;2023-11-21T11:08:40;95339.50;;;7.08;47.21
73671;BME280;61968;48.178;11.566;2023-11-21T11:11:07;95347.75;;;7.12;46.93
73671;BME280;61968;48.178;11.566;2023-11-21T11:13:35;95346.41;;;6.84;47.42
73671;BME280;61968;48.178;11.566;2023-11-21T11:16:04;95353.06;;;6.87;47.65
73671;BME280;61968;48.178;11.566;2023-11-21T11:18:33;95346.81;;;7.06;47.45
73671;BME280;61968;48.178;11.566;2023-11-21T11:21:07;95350.19;;;7.13;46.87
73671;BME280;61968;48.178;11.566;2023-11-21T11:23:46;95341.44;;;7.19;46.97
73671;BME280;61968;48.178;11.566;2023-11-21T11:26:24;95345.66;;;7.39;46.95
73671;BME280;61968;48.178;11.566;2023-11-21T11:29:00;95354.06;;;7.48;45.78
73671;BME280;61968;48.178;11.566;2023-11-21T11:31:39;95356.78;;;6.97;46.58
73671;BME280;61968;48.178;11.566;2023-11-21T11:34:14;95351.63;;;7.09;46.88
73671;BME280;61968;48.178;11.566;2023-11-21T11:36:48;95345.81;;;7.26;46.47
73671;BME280;61968;48.178;11.566;2023-11-21T11:39:27;95353.38;;;7.34;46.15
73671;BME280;61968;48.178;11.566;2023-11-21T11:41:55;95346.25;;;7.41;45.56
73671;BME280;61968;48.178;11.566;2023-11-21T11:44:50;95349.41;;;7.31;45.76
73671;BME280;61968;48.178;11.566;2023-11-21T11:47:23;95342.38;;;6.82;46.13
73671;BME280;61968;48.178;11.566;2023-11-21T11:50:01;95344.59;;;7.03;46.03
73671;BME280;61968;48.178;11.566;2023-11-21T11:52:34;95348.34;;;6.95;45.93
73671;BME280;61968;48.178;11.566;2023-11-21T11:55:02;95348.16;;;6.90;45.53
73671;BME280;61968;48.178;11.566;2023-11-21T11:57:30;95342.38;;;7.25;45.20
73671;BME280;61968;48.178;11.566;2023-11-21T12:00:14;95342.94;;;7.27;44.94
73671;BME280;61968;48.178;11.566;2023-11-21T12:02:47;95339.00;;;7.18;45.48
73671;BME280;61968;48.178;11.566;2023-11-21T12:05:15;95339.06;;;7.48;45.10
73671;BME280;61968;48.178;11.566;2023-11-21T12:07:44;95344.13;;;7.50;44.65
73671;BME280;61968;48.178;11.566;2023-11-21T12:10:12;95343.06;;;7.57;44.90
73671;BME280;61968;48.178;11.566;2023-11-21T12:12:42;95344.59;;;7.65;44.33
73671;BME280;61968;48.178;11.566;2023-11-21T12:15:10;95342.13;;;7.82;44.37
73671;BME280;61968;48.178;11.566;2023-11-21T12:17:37;95345.06;;;7.92;43.78
73671;BME280;61968;48.178;11.566;2023-11-21T12:20:07;95347.06;;;8.08;43.94
73671;BME280;61968;48.178;11.566;2023-11-21T12:22:43;95343.44;;;7.91;43.93
73671;BME280;61968;48.178;11.566;2023-11-21T12:25:10;95339.88;;;7.85;44.39
73671;BME280;61968;48.178;11.566;2023-11-21T12:27:42;95342.28;;;7.87;43.99
73671;BME280;61968;48.178;11.566;2023-11-21T12:30:09;95344.63;;;7.95;44.41
73671;BME280;61968;48.178;11.566;2023-11-21T12:32:38;95341.34;;;8.11;44.24
73671;BME280;61968;48.178;11.566;2023-11-21T12:35:08;95338.31;;;7.96;44.05
73671;BME280;61968;48.178;11.566;2023-11-21T12:37:35;95342.09;;;8.00;44.42
73671;BME280;61968;48.178;11.566;2023-11-21T12:40:02;95343.41;;;8.09;44.34
73671;BME280;61968;48.178;11.566;2023-11-21T12:42:28;95340.28;;;8.01;44.46
73671;BME280;61968;48.178;11.566;2023-11-21T12:45:10;95338.13;;;7.79;44.43
73671;BME280;61968;48.178;11.566;2023-11-21T12:47:41;95342.44;;;7.92;44.34
73671;BME280;61968;48.178;11.566;2023-11-21T12:50:09;95345.63;;;7.94;44.47
73671;BME280;61968;48.178;11.566;2023-11-21T12:52:43;95342.03;;;7.77;44.70
73671;BME280;61968;48.178;11.566;2023-11-21T12:55:16;95351.44;;;7.66;44.96
73671;BME280;61968;48.178;11.566;2023-11-21T12:57:43;95353.56;;;7.76;44.81
73671;BME280;61968;48.178;11.566;2023-11-21T13:00:12;95347.41;;;7.82;45.20
73671;BME280;61968;48.178;11.566;2023-11-21T13:02:51;95352.75;;;7.75;45.31